首页
METAR-TAF:

METAR-TAF

机场 :

Lawson Army Airfield

哥伦布, 喬治亞, 美国

纬度: 32-20N, 经度: 084-50W, 海拔: 71米

当前天气观测

该预报发布于12分钟前的07:56 UTC
静风
温度 5°C
湿度 87%
气压 1024 hPa
能見度: 16.1公里
多云层高于21000英尺
多云层高于23000英尺

METAR: KLSF 210756Z 00000KT 10SM BKN210 BKN230 05/03 A3024 RMK AO2A SLP245 $

时间: 03:08 (08:08 UTC)

预报

该预报发布于7小时和8分钟前的01:00 UTC
预报有效从21日的 01点(UTC)到 22日的 07点(UTC)
风速6节,风向多变
能见度10公里或以上
少量云层高于24000英尺
成为
从 21日的 09点(UTC)到 21日的 10点(UTC)
风速6节,风向东转东南
能見度: 6000
少量云层高于20000英尺
轻雾
成为
从 21日的 13点(UTC)到 21日的 14点(UTC)
风速9节,风向南转南东
能见度10公里或以上
散云层高于15000英尺

TAF: KLSF 210100Z 2101/2207 VRB06KT 9999 FEW240 QNH3014INS BECMG 2109/2110 12006KT 6000 BR FEW200 QNH3019INS BECMG 2113/2114 15009KT 9999 NSW SCT150 QNH3025INS TX19/2120Z TN04/2109Z

超过4000个机场的气象观测和天气预报(METAR&TAF报告)。

可查询的气象台以黄色和红色小点在地图上表示。

将鼠标移到小点上方,可查看气象台名称。

然后点击查看天气观测和预报。

如需切换地图:点击带黑十字的绿色按钮放大地图;点击带横线的绿色按钮缩小地图;或者点击绿色箭头查看邻近地区的地图。


METAR-TAF: